Terminal Aerodrome Forecast
Issued by NWS

Home | Current Version | Previous Version | Text Only | Print | Product List | Glossary On
Versions: 1 2 3 4 5 6 7 8 9 10 11 12 13 14 15 16
283
FTUS42 KMLB 280520
TAFTIX
TAF
KTIX 280520Z 2806/2906 26004KT P6SM SKC
     FM281300 28007KT P6SM SKC
     FM281900 10009KT P6SM SKC
     FM290000 15006KT P6SM SKC
      AMD NOT SKED 2806/2811=

USA.gov is the U.S. government's official web portal to all federal, state and local government web resources and services.